Terminal Aerodrome Forecast
Issued by NWS Des Moines, IA

Home | Current Version | Previous Version | Text Only | Print | Product List | Glossary On
Versions: 1 2 3 4 5 6 7 8 9 10 11 12 13 14 15 16 17 18 19 20 21 22 23 24 25 26 27 28 29 30 31 32 33 34 35
000
FTUS43 KDMX 251516 AAB
TAFALO
TAF AMD
KALO 251516Z 2515/2612 16018G30KT P6SM SHRA SCT008 BKN090
      TEMPO 2515/2516 BKN008
     FM251600 16016G25KT P6SM BKN050 OVC150
     FM251700 19012KT P6SM BKN040
     FM260000 17005KT P6SM FEW050
     FM260400 17003KT 4SM BR FEW050
     FM260800 VRB03KT 1SM BR SCT250=

USA.gov is the U.S. government's official web portal to all federal, state and local government web resources and services.